createdAt,value
2018-09-21T00:01:26.505Z,11.50
2018-09-21T00:04:00.069Z,11.50
2018-09-21T00:06:28.611Z,11.40
2018-09-21T00:08:56.946Z,11.40
2018-09-21T00:11:25.480Z,11.40
2018-09-21T00:13:53.855Z,11.40
2018-09-21T00:16:23.208Z,11.40
2018-09-21T00:18:52.010Z,11.40
2018-09-21T00:21:20.403Z,11.40
2018-09-21T00:23:49.246Z,11.40
2018-09-21T00:26:17.584Z,11.30
2018-09-21T00:28:46.956Z,11.30
2018-09-21T00:31:15.231Z,11.30
2018-09-21T00:33:43.596Z,11.30
2018-09-21T00:36:11.901Z,11.20
2018-09-21T00:38:40.430Z,11.20
2018-09-21T00:41:08.828Z,11.20
2018-09-21T00:43:37.188Z,11.20
2018-09-21T00:46:05.688Z,11.20
2018-09-21T00:48:36.151Z,11.20
2018-09-21T00:51:04.586Z,11.20
2018-09-21T00:53:33.521Z,11.20
2018-09-21T00:56:02.291Z,11.20
2018-09-21T00:58:30.317Z,11.20
2018-09-21T01:00:59.106Z,11.30
2018-09-21T01:03:28.884Z,11.20
2018-09-21T01:05:57.190Z,11.20
2018-09-21T01:08:26.173Z,11.20
2018-09-21T01:10:54.779Z,11.20
2018-09-21T01:13:23.561Z,11.20
2018-09-21T01:15:52.158Z,11.20
2018-09-21T01:18:20.268Z,11.30
2018-09-21T01:20:48.844Z,11.30
2018-09-21T01:23:17.290Z,11.40
2018-09-21T01:25:45.753Z,11.40
2018-09-21T01:28:13.940Z,11.50
2018-09-21T01:30:42.471Z,11.70
2018-09-21T01:33:11.081Z,11.90
2018-09-21T01:35:40.058Z,12.00
2018-09-21T01:38:08.455Z,12.10
2018-09-21T01:40:36.748Z,12.30
2018-09-21T01:43:05.273Z,12.40
2018-09-21T01:45:33.849Z,12.50
2018-09-21T01:48:02.333Z,12.70
2018-09-21T01:50:30.719Z,12.90
2018-09-21T01:52:58.805Z,13.00
2018-09-21T01:55:26.978Z,13.20
2018-09-21T01:57:55.062Z,13.50
2018-09-21T02:00:23.038Z,13.80
2018-09-21T02:02:52.282Z,14.20
2018-09-21T02:05:20.340Z,14.60
2018-09-21T02:07:48.295Z,15.00
2018-09-21T02:10:16.669Z,15.80
2018-09-21T02:12:44.876Z,16.30
2018-09-21T02:15:12.955Z,16.80
2018-09-21T02:17:40.851Z,17.30
2018-09-21T02:20:08.786Z,17.60
2018-09-21T02:22:37.015Z,17.90
2018-09-21T02:25:05.008Z,18.20
2018-09-21T02:27:33.149Z,18.40
2018-09-21T02:30:01.111Z,18.60
2018-09-21T02:32:29.708Z,18.80
2018-09-21T02:34:57.756Z,18.90
2018-09-21T02:37:25.776Z,19.00
2018-09-21T02:39:54.047Z,19.10
2018-09-21T02:42:22.359Z,19.10
2018-09-21T02:44:51.030Z,19.20
2018-09-21T02:47:19.186Z,19.30
2018-09-21T02:49:47.266Z,19.30
2018-09-21T02:52:15.738Z,19.30
2018-09-21T02:54:43.896Z,19.30
2018-09-21T02:57:11.988Z,19.20
2018-09-21T02:59:40.095Z,19.20
2018-09-21T03:02:07.987Z,19.20
2018-09-21T03:04:40.457Z,19.20
2018-09-21T03:07:08.530Z,19.20
2018-09-21T03:09:36.634Z,19.30
2018-09-21T03:12:04.477Z,19.30
2018-09-21T03:14:32.688Z,19.30
2018-09-21T03:17:00.480Z,19.30
2018-09-21T03:19:28.475Z,19.30
2018-09-21T03:21:56.357Z,19.30
2018-09-21T03:24:24.438Z,19.30
2018-09-21T03:26:52.589Z,19.30
2018-09-21T03:29:20.471Z,19.30
2018-09-21T03:31:48.452Z,19.30
2018-09-21T03:34:16.442Z,19.30
2018-09-21T03:36:44.335Z,19.30
2018-09-21T03:39:12.094Z,19.20
2018-09-21T03:41:39.942Z,19.20
2018-09-21T03:44:07.736Z,19.20
2018-09-21T03:46:36.318Z,19.10
2018-09-21T03:49:04.179Z,19.10
2018-09-21T03:51:32.154Z,19.10
2018-09-21T03:54:00.013Z,19.10
2018-09-21T03:56:27.915Z,19.10
2018-09-21T03:58:55.790Z,19.10
2018-09-21T04:01:23.881Z,19.10
2018-09-21T04:03:52.110Z,19.10
2018-09-21T04:06:19.977Z,19.10
2018-09-21T04:08:47.863Z,19.10
2018-09-21T04:11:15.773Z,19.10
2018-09-21T04:13:43.818Z,19.10
2018-09-21T04:16:12.154Z,19.10
2018-09-21T04:18:39.965Z,19.10
2018-09-21T04:21:08.282Z,19.10
2018-09-21T04:23:36.084Z,19.10
2018-09-21T04:26:04.201Z,19.00
2018-09-21T04:28:32.000Z,19.00
2018-09-21T04:30:59.911Z,18.90
2018-09-21T04:33:27.830Z,18.90
2018-09-21T04:35:55.737Z,18.80
2018-09-21T04:38:23.521Z,18.80
2018-09-21T04:40:51.373Z,18.70
2018-09-21T04:43:19.221Z,18.70
2018-09-21T04:45:47.339Z,18.70
2018-09-21T04:48:15.470Z,18.60
2018-09-21T04:50:43.522Z,18.60
2018-09-21T04:53:11.769Z,18.60
2018-09-21T04:55:39.763Z,18.60
2018-09-21T04:58:07.652Z,18.60
2018-09-21T05:00:35.700Z,18.60
2018-09-21T05:03:03.527Z,18.60
2018-09-21T05:05:31.335Z,18.70
2018-09-21T05:08:01.594Z,18.70
2018-09-21T05:10:29.584Z,18.60
2018-09-21T05:12:57.581Z,18.60
2018-09-21T05:15:25.544Z,18.50
2018-09-21T05:17:53.953Z,18.50
2018-09-21T05:20:22.203Z,18.50
2018-09-21T05:22:52.447Z,18.40
2018-09-21T05:25:20.687Z,18.40
2018-09-21T05:27:48.727Z,18.30
2018-09-21T05:30:16.714Z,18.30
2018-09-21T05:32:45.275Z,18.30
2018-09-21T05:35:13.408Z,18.20
2018-09-21T05:37:41.833Z,18.20
2018-09-21T05:40:09.799Z,18.20
2018-09-21T05:42:38.135Z,18.20
2018-09-21T05:45:06.662Z,18.30
2018-09-21T05:47:35.109Z,18.30
2018-09-21T05:50:03.314Z,18.50
2018-09-21T05:52:31.972Z,18.60
2018-09-21T05:55:00.070Z,18.80
2018-09-21T05:57:28.138Z,18.90
2018-09-21T05:59:56.294Z,19.00
2018-09-21T06:02:25.023Z,19.20
2018-09-21T06:04:58.587Z,19.40
2018-09-21T06:07:26.410Z,19.60
2018-09-21T06:09:54.698Z,19.70
2018-09-21T06:12:22.665Z,19.80
2018-09-21T06:14:51.317Z,19.90
2018-09-21T06:17:19.282Z,19.90
2018-09-21T06:19:47.215Z,19.90
2018-09-21T06:22:15.033Z,20.00
2018-09-21T06:24:43.004Z,20.00
2018-09-21T06:27:11.248Z,20.10
2018-09-21T06:29:39.638Z,20.10
2018-09-21T06:32:07.616Z,20.10
2018-09-21T06:34:37.342Z,20.20
2018-09-21T06:37:05.093Z,20.20
2018-09-21T06:39:33.477Z,20.30
2018-09-21T06:42:01.564Z,20.30
2018-09-21T06:44:29.609Z,20.40
2018-09-21T06:46:57.409Z,20.40
2018-09-21T06:49:25.421Z,20.40
2018-09-21T06:51:53.470Z,20.50
2018-09-21T06:54:22.234Z,20.50
2018-09-21T06:56:50.297Z,20.60
2018-09-21T06:59:18.190Z,20.60
2018-09-21T07:01:46.297Z,20.60
2018-09-21T07:04:14.051Z,20.60
2018-09-21T07:06:42.435Z,20.60
2018-09-21T07:09:12.714Z,20.60
2018-09-21T07:11:41.700Z,20.70
2018-09-21T07:14:11.966Z,20.70
2018-09-21T07:16:40.863Z,20.60
2018-09-21T07:19:09.270Z,20.60
2018-09-21T07:21:37.726Z,20.70
2018-09-21T07:24:06.255Z,20.70
2018-09-21T07:26:35.811Z,20.80
2018-09-21T07:29:04.301Z,20.90
2018-09-21T07:31:33.113Z,21.00
2018-09-21T07:34:01.196Z,21.00
2018-09-21T07:36:30.515Z,21.20
2018-09-21T07:38:58.774Z,21.60
2018-09-21T07:41:27.349Z,21.80
2018-09-21T07:43:55.668Z,22.10
2018-09-21T07:46:24.150Z,22.20
2018-09-21T07:48:52.879Z,22.20
2018-09-21T07:51:21.128Z,22.20
2018-09-21T07:53:49.359Z,22.20
2018-09-21T07:56:17.543Z,22.10
2018-09-21T07:58:45.579Z,22.10
2018-09-21T08:01:14.927Z,22.20
2018-09-21T08:03:42.753Z,22.20
2018-09-21T08:06:11.586Z,22.20
2018-09-21T08:08:39.556Z,22.30
2018-09-21T08:11:07.672Z,22.30
2018-09-21T08:13:36.495Z,22.40
2018-09-21T08:16:04.568Z,22.50
2018-09-21T08:18:32.570Z,22.60
2018-09-21T08:21:00.842Z,22.80
2018-09-21T08:23:29.098Z,22.90
2018-09-21T08:25:57.617Z,23.10
2018-09-21T08:28:25.929Z,23.10
2018-09-21T08:30:54.052Z,23.30
2018-09-21T08:33:22.581Z,23.40
2018-09-21T08:35:50.489Z,23.40
2018-09-21T08:38:18.472Z,23.50
2018-09-21T08:40:46.713Z,23.50
2018-09-21T08:43:15.544Z,23.50
2018-09-21T08:45:43.633Z,23.60
2018-09-21T08:48:11.819Z,23.60
2018-09-21T08:50:39.845Z,23.60
2018-09-21T08:53:08.151Z,23.80
2018-09-21T08:55:36.853Z,23.90
2018-09-21T08:58:04.842Z,24.10
2018-09-21T09:00:32.696Z,24.30
2018-09-21T09:03:00.635Z,24.30
2018-09-21T09:05:28.682Z,24.30
2018-09-21T09:07:56.782Z,24.30
2018-09-21T09:10:25.038Z,24.40
2018-09-21T09:12:53.170Z,24.40
2018-09-21T09:15:21.112Z,24.40
2018-09-21T09:17:49.055Z,24.50
2018-09-21T09:20:16.927Z,24.70
2018-09-21T09:22:45.432Z,24.90
2018-09-21T09:25:13.624Z,25.00
2018-09-21T09:27:41.990Z,25.00
2018-09-21T09:30:10.128Z,25.00
2018-09-21T09:32:38.548Z,25.00
2018-09-21T09:35:06.400Z,25.20
2018-09-21T09:37:34.388Z,25.30
2018-09-21T09:40:08.897Z,25.40
2018-09-21T09:42:36.995Z,25.30
2018-09-21T09:45:05.386Z,25.20
2018-09-21T09:47:33.302Z,25.10
2018-09-21T09:50:01.400Z,25.20
2018-09-21T09:52:30.296Z,25.50
2018-09-21T09:54:58.206Z,25.70
2018-09-21T09:57:26.341Z,25.90
2018-09-21T09:59:54.254Z,26.00
2018-09-21T10:02:22.490Z,25.90
2018-09-21T10:04:50.972Z,25.70
2018-09-21T10:07:18.996Z,25.60
2018-09-21T10:09:47.686Z,25.50
2018-09-21T10:12:16.546Z,25.40
2018-09-21T10:14:45.716Z,25.50
2018-09-21T10:17:13.620Z,25.60
2018-09-21T10:19:42.155Z,25.80
2018-09-21T10:22:10.470Z,25.80
2018-09-21T10:24:39.305Z,25.80
2018-09-21T10:27:07.392Z,25.90
2018-09-21T10:29:35.560Z,26.00
2018-09-21T10:32:04.235Z,26.00
2018-09-21T10:34:34.316Z,26.00
2018-09-21T10:37:02.409Z,25.90
2018-09-21T10:39:30.454Z,25.90
2018-09-21T10:41:59.682Z,26.00
2018-09-21T10:44:27.927Z,26.20
2018-09-21T10:46:56.070Z,26.30
2018-09-21T10:49:24.207Z,26.30
2018-09-21T10:51:52.274Z,26.30
2018-09-21T10:54:20.320Z,26.40
2018-09-21T10:56:49.759Z,26.60
2018-09-21T10:59:18.114Z,26.60
2018-09-21T11:01:46.331Z,26.50
2018-09-21T11:04:14.337Z,26.40
2018-09-21T11:06:42.361Z,26.40
2018-09-21T11:09:11.162Z,26.50
2018-09-21T11:11:39.771Z,26.30
2018-09-21T11:14:07.812Z,26.20
2018-09-21T11:16:37.107Z,26.10
2018-09-21T11:19:05.361Z,26.10
2018-09-21T11:21:33.527Z,26.10
2018-09-21T11:24:02.940Z,26.00
2018-09-21T11:26:30.819Z,25.90
2018-09-21T11:28:58.818Z,26.00
2018-09-21T11:31:26.952Z,26.10
2018-09-21T11:33:55.086Z,26.20
2018-09-21T11:36:23.630Z,26.30
2018-09-21T11:38:51.774Z,26.30
2018-09-21T11:41:19.922Z,26.30
2018-09-21T11:43:48.153Z,26.30
2018-09-21T11:46:16.671Z,26.30
2018-09-21T11:48:44.735Z,26.20
2018-09-21T11:51:13.571Z,26.20
2018-09-21T11:53:41.434Z,26.30
2018-09-21T11:56:10.321Z,26.30
2018-09-21T11:58:38.528Z,26.30
2018-09-21T12:01:06.634Z,26.30
2018-09-21T12:03:35.260Z,26.40
2018-09-21T12:06:05.853Z,26.60
2018-09-21T12:08:35.591Z,26.70
2018-09-21T12:11:03.691Z,26.60
2018-09-21T12:13:32.636Z,26.60
2018-09-21T12:16:00.593Z,26.30
2018-09-21T12:18:28.932Z,26.20
2018-09-21T12:20:57.152Z,26.10
2018-09-21T12:23:25.136Z,26.10
2018-09-21T12:25:53.415Z,26.20
2018-09-21T12:28:22.106Z,26.10
2018-09-21T12:30:50.488Z,26.00
2018-09-21T12:33:18.451Z,26.00
2018-09-21T12:35:46.878Z,26.00
2018-09-21T12:38:15.128Z,26.00
2018-09-21T12:40:43.230Z,26.00
2018-09-21T12:43:11.096Z,26.20
2018-09-21T12:45:39.485Z,26.30
2018-09-21T12:48:07.792Z,26.40
2018-09-21T12:50:36.088Z,26.30
2018-09-21T12:53:04.088Z,26.20
2018-09-21T12:55:31.995Z,26.00
2018-09-21T12:57:59.891Z,25.90
2018-09-21T13:00:32.165Z,25.90
2018-09-21T13:03:00.260Z,25.90
2018-09-21T13:05:28.468Z,25.70
2018-09-21T13:07:56.635Z,25.60
2018-09-21T13:10:24.828Z,25.50
2018-09-21T13:12:52.885Z,25.40
2018-09-21T13:15:21.668Z,25.40
2018-09-21T13:17:49.916Z,25.30
2018-09-21T13:20:17.847Z,25.30
2018-09-21T13:22:47.430Z,25.30
2018-09-21T13:25:15.930Z,25.20
2018-09-21T13:27:44.084Z,25.10
2018-09-21T13:30:12.267Z,25.00
2018-09-21T13:32:40.560Z,25.00
2018-09-21T13:35:08.712Z,25.00
2018-09-21T13:37:37.094Z,24.90
2018-09-21T13:40:05.324Z,24.90
2018-09-21T13:42:34.230Z,24.70
2018-09-21T13:45:02.773Z,24.60
2018-09-21T13:47:31.433Z,24.60
2018-09-21T13:49:59.523Z,24.50
2018-09-21T13:52:27.586Z,24.50
2018-09-21T13:54:55.580Z,24.50
2018-09-21T13:57:23.836Z,24.40
2018-09-21T13:59:51.950Z,24.30
2018-09-21T14:02:20.093Z,24.30
2018-09-21T14:04:47.973Z,24.00
2018-09-21T14:07:16.853Z,23.60
2018-09-21T14:09:44.812Z,23.10
2018-09-21T14:12:12.811Z,22.40
2018-09-21T14:14:41.311Z,22.00
2018-09-21T14:17:09.280Z,21.50
2018-09-21T14:19:37.727Z,21.10
2018-09-21T14:22:06.322Z,20.70
2018-09-21T14:24:34.073Z,20.50
2018-09-21T14:27:02.713Z,20.30
2018-09-21T14:29:30.760Z,20.00
2018-09-21T14:31:59.295Z,19.80
2018-09-21T14:34:27.522Z,19.70
2018-09-21T14:36:55.818Z,19.70
2018-09-21T14:39:23.985Z,19.80
2018-09-21T14:41:52.190Z,19.70
2018-09-21T14:44:20.124Z,19.60
2018-09-21T14:46:48.380Z,19.50
2018-09-21T14:49:17.618Z,19.40
2018-09-21T14:51:46.198Z,19.30
2018-09-21T14:54:14.202Z,19.10
2018-09-21T14:56:42.588Z,18.90
2018-09-21T14:59:10.749Z,18.80
2018-09-21T15:01:38.928Z,18.60
2018-09-21T15:04:07.258Z,18.50
2018-09-21T15:06:36.592Z,18.00
2018-09-21T15:09:07.102Z,17.50
2018-09-21T15:11:35.911Z,17.20
2018-09-21T15:14:05.527Z,16.80
2018-09-21T15:16:34.987Z,16.50
2018-09-21T15:19:02.960Z,16.30
2018-09-21T15:21:31.982Z,16.10
2018-09-21T15:24:01.968Z,15.90
2018-09-21T15:26:30.482Z,15.60
2018-09-21T15:28:58.454Z,15.30
2018-09-21T15:31:26.549Z,15.20
2018-09-21T15:33:55.575Z,15.10
2018-09-21T15:36:24.114Z,14.90
2018-09-21T15:38:52.198Z,14.70
2018-09-21T15:41:21.213Z,14.40
2018-09-21T15:43:49.025Z,14.40
2018-09-21T15:46:17.482Z,14.20
2018-09-21T15:48:45.861Z,14.20
2018-09-21T15:51:14.051Z,14.00
2018-09-21T15:53:42.272Z,14.00
2018-09-21T15:56:10.961Z,13.90
2018-09-21T15:58:39.485Z,13.80
2018-09-21T16:01:07.589Z,13.80
2018-09-21T16:03:36.456Z,13.70
2018-09-21T16:06:05.644Z,13.70
2018-09-21T16:08:34.355Z,13.60
2018-09-21T16:11:03.121Z,13.60
2018-09-21T16:13:31.250Z,13.50
2018-09-21T16:15:59.808Z,13.50
2018-09-21T16:18:28.583Z,13.50
2018-09-21T16:20:56.574Z,13.40
2018-09-21T16:23:24.443Z,13.40
2018-09-21T16:25:55.373Z,13.30
2018-09-21T16:28:23.751Z,13.20
2018-09-21T16:30:51.926Z,13.20
2018-09-21T16:33:20.670Z,13.10
2018-09-21T16:35:49.501Z,13.10
2018-09-21T16:38:18.216Z,13.10
2018-09-21T16:40:46.311Z,13.10
2018-09-21T16:43:14.323Z,13.00
2018-09-21T16:45:42.359Z,13.00
2018-09-21T16:48:10.593Z,13.00
2018-09-21T16:50:38.755Z,13.00
2018-09-21T16:53:06.772Z,13.00
2018-09-21T16:55:34.888Z,13.00
2018-09-21T16:58:03.321Z,13.00
2018-09-21T17:00:31.330Z,12.90
2018-09-21T17:02:59.888Z,12.80
2018-09-21T17:05:28.399Z,12.80
2018-09-21T17:07:56.929Z,12.80
2018-09-21T17:10:24.896Z,12.80
2018-09-21T17:12:53.479Z,12.70
2018-09-21T17:15:22.262Z,12.60
2018-09-21T17:17:50.456Z,12.60
2018-09-21T17:20:18.558Z,12.60
2018-09-21T17:22:47.302Z,12.50
2018-09-21T17:25:15.495Z,12.50
2018-09-21T17:27:43.978Z,12.40
2018-09-21T17:30:12.062Z,12.40
2018-09-21T17:32:40.534Z,12.40
2018-09-21T17:35:09.012Z,12.40
2018-09-21T17:37:37.346Z,12.30
2018-09-21T17:40:05.993Z,12.20
2018-09-21T17:42:36.255Z,12.20
2018-09-21T17:45:05.518Z,12.10
2018-09-21T17:47:33.557Z,12.10
2018-09-21T17:50:02.457Z,12.10
2018-09-21T17:52:31.127Z,12.20
2018-09-21T17:54:59.324Z,12.10
2018-09-21T17:57:27.238Z,12.10
2018-09-21T17:59:55.394Z,12.10
2018-09-21T18:02:23.847Z,12.10
2018-09-21T18:04:52.186Z,12.00
2018-09-21T18:07:21.363Z,12.10
2018-09-21T18:09:52.254Z,12.10
2018-09-21T18:12:20.453Z,12.00
2018-09-21T18:14:49.983Z,12.00
2018-09-21T18:17:18.055Z,12.00
2018-09-21T18:19:46.328Z,11.90
2018-09-21T18:22:14.339Z,11.90
2018-09-21T18:24:42.504Z,11.90
2018-09-21T18:27:10.936Z,11.90
2018-09-21T18:29:39.319Z,12.00
2018-09-21T18:32:07.576Z,11.90
2018-09-21T18:34:35.985Z,11.80
2018-09-21T18:37:04.261Z,11.80
2018-09-21T18:39:32.451Z,11.70
2018-09-21T18:42:00.973Z,11.70
2018-09-21T18:44:29.514Z,11.70
2018-09-21T18:46:57.917Z,11.60
2018-09-21T18:49:26.962Z,11.60
2018-09-21T18:51:56.536Z,11.50
2018-09-21T18:54:26.758Z,11.50
2018-09-21T18:56:55.111Z,11.50
2018-09-21T18:59:23.254Z,11.40
2018-09-21T19:01:53.052Z,11.40
2018-09-21T19:04:21.208Z,11.40
2018-09-21T19:06:49.522Z,11.40
2018-09-21T19:09:18.112Z,11.40
2018-09-21T19:11:46.934Z,11.40
2018-09-21T19:14:16.265Z,11.30
2018-09-21T19:16:44.332Z,11.30
2018-09-21T19:19:12.884Z,11.30
2018-09-21T19:21:42.100Z,11.30
2018-09-21T19:24:11.699Z,11.20
2018-09-21T19:26:40.954Z,11.20
2018-09-21T19:29:09.517Z,11.20
2018-09-21T19:31:38.454Z,11.20
2018-09-21T19:34:07.250Z,11.20
2018-09-21T19:36:36.530Z,11.20
2018-09-21T19:39:09.582Z,11.10
2018-09-21T19:41:38.493Z,11.10
2018-09-21T19:44:07.539Z,11.10
2018-09-21T19:46:36.660Z,11.10
2018-09-21T19:49:05.651Z,11.10
2018-09-21T19:51:34.761Z,11.00
2018-09-21T19:54:03.120Z,10.90
2018-09-21T19:56:33.261Z,10.90
2018-09-21T19:59:02.203Z,10.80
2018-09-21T20:01:31.663Z,10.70
2018-09-21T20:04:00.819Z,10.70
2018-09-21T20:06:29.405Z,10.60
2018-09-21T20:08:57.715Z,10.50
2018-09-21T20:11:25.968Z,10.50
2018-09-21T20:13:54.959Z,10.50
2018-09-21T20:16:22.942Z,10.50
2018-09-21T20:18:52.178Z,10.50
2018-09-21T20:21:20.846Z,10.40
2018-09-21T20:23:49.565Z,10.30
2018-09-21T20:26:18.433Z,10.30
2018-09-21T20:28:47.056Z,10.30
2018-09-21T20:31:21.153Z,10.20
2018-09-21T20:33:49.231Z,10.10
2018-09-21T20:36:17.690Z,10.10
2018-09-21T20:38:46.230Z,10.00
2018-09-21T20:41:14.652Z,10.00
2018-09-21T20:43:43.574Z,9.90
2018-09-21T20:46:12.742Z,9.90
2018-09-21T20:48:42.253Z,9.80
2018-09-21T20:51:10.435Z,9.70
2018-09-21T20:53:38.342Z,9.70
2018-09-21T20:56:06.634Z,9.60
2018-09-21T20:58:35.019Z,9.60
2018-09-21T21:01:03.080Z,9.60
2018-09-21T21:03:31.383Z,9.50
2018-09-21T21:05:59.597Z,9.50
2018-09-21T21:08:27.680Z,9.50
2018-09-21T21:10:55.633Z,9.50
2018-09-21T21:13:25.024Z,9.40
2018-09-21T21:15:53.828Z,9.40
2018-09-21T21:18:22.177Z,9.40
2018-09-21T21:20:50.147Z,9.40
2018-09-21T21:23:18.229Z,9.40
2018-09-21T21:25:46.455Z,9.30
2018-09-21T21:28:14.462Z,9.40
2018-09-21T21:30:42.518Z,9.30
2018-09-21T21:33:10.481Z,9.30
2018-09-21T21:35:38.827Z,9.20
2018-09-21T21:38:07.145Z,9.20
2018-09-21T21:40:35.586Z,9.20
2018-09-21T21:43:03.937Z,9.20
2018-09-21T21:45:32.731Z,9.10
2018-09-21T21:48:00.802Z,9.10
2018-09-21T21:50:29.410Z,9.10
2018-09-21T21:52:57.701Z,9.00
2018-09-21T21:55:26.752Z,9.00
2018-09-21T21:57:55.040Z,8.90
2018-09-21T22:00:23.577Z,8.90
2018-09-21T22:02:52.113Z,8.90
2018-09-21T22:05:20.135Z,8.80
2018-09-21T22:07:48.899Z,8.80
2018-09-21T22:10:16.901Z,8.70
2018-09-21T22:13:49.584Z,8.70
2018-09-21T22:16:17.560Z,8.70
2018-09-21T22:18:45.856Z,8.70
2018-09-21T22:21:14.000Z,8.70
2018-09-21T22:23:42.205Z,8.70
2018-09-21T22:26:10.201Z,8.60
2018-09-21T22:28:38.222Z,8.60
2018-09-21T22:31:06.571Z,8.60
2018-09-21T22:33:34.681Z,8.80
2018-09-21T22:36:03.830Z,8.80
2018-09-21T22:38:32.014Z,8.80
2018-09-21T22:40:59.878Z,8.80
2018-09-21T22:43:27.839Z,8.70
2018-09-21T22:45:55.682Z,8.60
2018-09-21T22:48:23.839Z,8.60
2018-09-21T22:50:52.470Z,8.60
2018-09-21T22:53:20.402Z,8.60
2018-09-21T22:55:48.452Z,8.60
2018-09-21T22:58:16.811Z,8.60
2018-09-21T23:00:45.178Z,8.50
2018-09-21T23:03:13.326Z,8.40
2018-09-21T23:05:41.873Z,8.50
2018-09-21T23:08:10.185Z,8.50
2018-09-21T23:10:38.822Z,8.50
2018-09-21T23:13:07.247Z,8.60
2018-09-21T23:15:36.717Z,8.70
2018-09-21T23:18:04.710Z,8.60
2018-09-21T23:20:32.582Z,8.50
2018-09-21T23:23:01.463Z,8.50
2018-09-21T23:25:29.949Z,8.40
2018-09-21T23:27:58.074Z,8.40
2018-09-21T23:30:26.588Z,8.40
2018-09-21T23:32:55.524Z,8.40
2018-09-21T23:35:23.582Z,8.40
2018-09-21T23:37:52.279Z,8.40
2018-09-21T23:40:20.194Z,8.40
2018-09-21T23:42:48.998Z,8.50
2018-09-21T23:45:17.426Z,8.50
2018-09-21T23:47:46.274Z,8.50
2018-09-21T23:50:14.483Z,8.50
2018-09-21T23:52:43.076Z,8.50
2018-09-21T23:55:11.611Z,8.50
2018-09-21T23:57:39.841Z,8.50
